createdAt,value
2017-02-18T00:00:32.511Z,0
2017-02-18T00:01:32.501Z,0
2017-02-18T00:02:32.452Z,0
2017-02-18T00:03:33.503Z,0
2017-02-18T00:04:33.254Z,0
2017-02-18T00:05:33.114Z,0
2017-02-18T00:06:32.450Z,0
2017-02-18T00:07:33.257Z,0
2017-02-18T00:08:32.832Z,0
2017-02-18T00:09:32.633Z,0
2017-02-18T00:10:32.672Z,0
2017-02-18T00:11:32.731Z,0
2017-02-18T00:12:31.641Z,0
2017-02-18T00:13:33.189Z,0
2017-02-18T00:14:31.911Z,0
2017-02-18T00:15:32.308Z,0
2017-02-18T00:16:32.721Z,0
2017-02-18T00:17:33.101Z,0
2017-02-18T00:18:31.275Z,0
2017-02-18T00:19:31.907Z,0
2017-02-18T00:20:32.226Z,0
2017-02-18T00:21:32.181Z,0
2017-02-18T00:22:32.201Z,0
2017-02-18T00:23:31.806Z,0
2017-02-18T00:24:32.167Z,0
2017-02-18T00:25:32.146Z,0
2017-02-18T00:26:32.150Z,0
2017-02-18T00:27:32.121Z,0
2017-02-18T00:28:31.785Z,0
2017-02-18T00:29:32.080Z,0
2017-02-18T00:30:32.076Z,0
2017-02-18T00:31:32.133Z,0
2017-02-18T00:32:32.059Z,0
2017-02-18T00:33:32.434Z,0
2017-02-18T00:34:32.028Z,0
2017-02-18T00:35:32.011Z,0
2017-02-18T00:36:31.974Z,0
2017-02-18T00:37:31.947Z,0
2017-02-18T00:38:31.552Z,0
2017-02-18T00:39:32.647Z,0
2017-02-18T00:40:32.231Z,0
2017-02-18T00:41:31.711Z,0
2017-02-18T00:42:31.779Z,0
2017-02-18T00:43:32.086Z,0
2017-02-18T00:44:32.121Z,0
2017-02-18T00:45:31.482Z,0
2017-02-18T00:46:31.810Z,0
2017-02-18T00:47:32.001Z,0
2017-02-18T00:48:30.839Z,0
2017-02-18T00:49:31.795Z,0
2017-02-18T00:50:31.843Z,0
2017-02-18T00:51:31.744Z,0
2017-02-18T00:52:31.806Z,0
2017-02-18T00:53:31.729Z,0
2017-02-18T00:54:31.723Z,0
2017-02-18T00:55:31.689Z,0
2017-02-18T00:56:31.712Z,0
2017-02-18T00:57:31.681Z,0
2017-02-18T00:58:31.661Z,0
2017-02-18T00:59:30.943Z,0
2017-02-18T01:00:32.585Z,0
2017-02-18T01:01:30.990Z,0
2017-02-18T01:02:31.289Z,0
2017-02-18T01:03:31.603Z,0
2017-02-18T01:04:31.202Z,0
2017-02-18T01:05:31.895Z,0
2017-02-18T01:06:31.534Z,0
2017-02-18T01:07:31.530Z,0
2017-02-18T01:08:31.511Z,0
2017-02-18T01:09:31.546Z,0
2017-02-18T01:10:31.493Z,0
2017-02-18T01:11:31.453Z,0
2017-02-18T01:12:31.439Z,0
2017-02-18T01:13:31.038Z,0
2017-02-18T01:14:31.402Z,0
2017-02-18T01:15:31.984Z,0
2017-02-18T01:16:31.401Z,0
2017-02-18T01:17:30.982Z,0
2017-02-18T01:18:30.965Z,0
2017-02-18T01:19:30.929Z,0
2017-02-18T01:20:31.337Z,0
2017-02-18T01:21:31.326Z,0
2017-02-18T01:22:31.293Z,0
2017-02-18T01:23:31.287Z,0
2017-02-18T01:24:32.162Z,0
2017-02-18T01:25:30.733Z,0
2017-02-18T01:26:31.248Z,0
2017-02-18T01:27:30.460Z,0
2017-02-18T01:28:31.203Z,0
2017-02-18T01:29:31.200Z,0
2017-02-18T01:30:31.183Z,0
2017-02-18T01:31:31.207Z,0
2017-02-18T01:32:31.147Z,0
2017-02-18T01:33:31.374Z,0
2017-02-18T01:34:31.274Z,0
2017-02-18T01:35:31.191Z,0
2017-02-18T01:36:31.081Z,0
2017-02-18T01:37:31.078Z,0
2017-02-18T01:38:31.059Z,0
2017-02-18T01:39:30.648Z,0
2017-02-18T01:40:31.010Z,0
2017-02-18T01:41:30.593Z,0
2017-02-18T01:42:30.607Z,0
2017-02-18T01:43:30.987Z,0
2017-02-18T01:44:30.971Z,0
2017-02-18T01:45:30.530Z,0
2017-02-18T01:46:30.934Z,0
2017-02-18T01:47:30.947Z,0
2017-02-18T01:48:30.497Z,0
2017-02-18T01:49:30.493Z,0
2017-02-18T01:50:30.480Z,0
2017-02-18T01:51:30.465Z,0
2017-02-18T01:52:30.443Z,0
2017-02-18T01:53:30.420Z,0
2017-02-18T01:54:30.894Z,0
2017-02-18T01:55:30.775Z,0
2017-02-18T01:56:30.777Z,0
2017-02-18T01:57:30.756Z,0
2017-02-18T01:58:30.777Z,0
2017-02-18T01:59:30.730Z,0
2017-02-18T02:00:30.730Z,0
2017-02-18T02:01:30.688Z,0
2017-02-18T02:02:30.331Z,0
2017-02-18T02:03:30.658Z,0
2017-02-18T02:04:30.655Z,0
2017-02-18T02:05:30.649Z,0
2017-02-18T02:06:30.615Z,0
2017-02-18T02:07:30.254Z,0
2017-02-18T02:08:29.791Z,0
2017-02-18T02:09:30.608Z,0
2017-02-18T02:10:30.564Z,0
2017-02-18T02:11:30.555Z,0
2017-02-18T02:12:30.138Z,0
2017-02-18T02:13:30.517Z,0
2017-02-18T02:14:30.507Z,0
2017-02-18T02:15:30.482Z,0
2017-02-18T02:16:30.476Z,0
2017-02-18T02:17:30.047Z,0
2017-02-18T02:18:30.449Z,0
2017-02-18T02:19:30.416Z,0
2017-02-18T02:20:30.431Z,0
2017-02-18T02:21:29.993Z,0
2017-02-18T02:22:30.004Z,0
2017-02-18T02:23:30.391Z,0
2017-02-18T02:24:30.336Z,0
2017-02-18T02:25:30.336Z,0
2017-02-18T02:26:30.345Z,0
2017-02-18T02:27:29.915Z,0
2017-02-18T02:28:30.299Z,0
2017-02-18T02:29:30.282Z,0
2017-02-18T02:30:30.268Z,0
2017-02-18T02:31:30.270Z,0
2017-02-18T02:32:30.231Z,0
2017-02-18T02:33:30.247Z,0
2017-02-18T02:34:30.226Z,0
2017-02-18T02:35:30.200Z,0
2017-02-18T02:36:30.178Z,0
2017-02-18T02:37:30.164Z,0
2017-02-18T02:38:30.165Z,0
2017-02-18T02:39:30.127Z,0
2017-02-18T02:40:30.138Z,0
2017-02-18T02:41:30.155Z,0
2017-02-18T02:42:30.080Z,0
2017-02-18T02:43:30.062Z,0
2017-02-18T02:44:30.052Z,0
2017-02-18T02:45:30.047Z,0
2017-02-18T02:46:30.021Z,0
2017-02-18T02:47:30.002Z,0
2017-02-18T02:48:30.016Z,0
2017-02-18T02:49:29.969Z,0
2017-02-18T02:50:29.969Z,0
2017-02-18T02:51:29.971Z,0
2017-02-18T02:52:29.931Z,0
2017-02-18T02:53:29.930Z,0
2017-02-18T02:54:29.925Z,0
2017-02-18T02:55:29.895Z,0
2017-02-18T02:56:29.486Z,0
2017-02-18T02:57:29.862Z,0
2017-02-18T02:58:29.846Z,0
2017-02-18T02:59:29.833Z,0
2017-02-18T03:00:29.812Z,0
2017-02-18T03:01:29.799Z,0
2017-02-18T03:02:29.790Z,0
2017-02-18T03:03:29.771Z,0
2017-02-18T03:04:29.743Z,0
2017-02-18T03:05:29.746Z,0
2017-02-18T03:06:29.731Z,0
2017-02-18T03:07:29.303Z,0
2017-02-18T03:08:29.708Z,0
2017-02-18T03:09:29.679Z,0
2017-02-18T03:10:29.683Z,0
2017-02-18T03:11:29.655Z,0
2017-02-18T03:12:29.295Z,0
2017-02-18T03:13:29.614Z,0
2017-02-18T03:14:29.607Z,0
2017-02-18T03:15:29.567Z,0
2017-02-18T03:16:29.563Z,0
2017-02-18T03:17:29.494Z,0
2017-02-18T03:18:29.694Z,0
2017-02-18T03:19:29.598Z,0
2017-02-18T03:20:29.527Z,0
2017-02-18T03:21:29.558Z,0
2017-02-18T03:22:29.516Z,0
2017-02-18T03:23:29.480Z,0
2017-02-18T03:24:29.468Z,0
2017-02-18T03:25:29.428Z,0
2017-02-18T03:26:29.442Z,0
2017-02-18T03:27:29.414Z,0
2017-02-18T03:28:28.821Z,0
2017-02-18T03:29:29.124Z,0
2017-02-18T03:30:29.379Z,0
2017-02-18T03:31:29.364Z,0
2017-02-18T03:32:28.144Z,0
2017-02-18T03:33:29.345Z,0
2017-02-18T03:34:29.398Z,0
2017-02-18T03:35:29.334Z,0
2017-02-18T03:36:28.874Z,0
2017-02-18T03:37:29.279Z,0
2017-02-18T03:38:28.831Z,0
2017-02-18T03:39:29.221Z,0
2017-02-18T03:40:29.307Z,0
2017-02-18T03:41:29.247Z,0
2017-02-18T03:42:29.192Z,0
2017-02-18T03:43:29.163Z,0
2017-02-18T03:44:29.396Z,0
2017-02-18T03:45:29.133Z,0
2017-02-18T03:46:29.123Z,0
2017-02-18T03:47:29.311Z,0
2017-02-18T03:48:29.097Z,0
2017-02-18T03:49:29.087Z,0
2017-02-18T03:50:28.615Z,0
2017-02-18T03:51:29.047Z,0
2017-02-18T03:52:28.245Z,0
2017-02-18T03:53:29.193Z,0
2017-02-18T03:54:28.990Z,0
2017-02-18T03:55:28.971Z,0
2017-02-18T03:56:28.956Z,0
2017-02-18T03:57:29.300Z,0
2017-02-18T03:58:28.962Z,0
2017-02-18T03:59:28.918Z,0
2017-02-18T04:00:28.374Z,0
2017-02-18T04:01:28.896Z,0
2017-02-18T04:02:28.490Z,0
2017-02-18T04:03:28.338Z,0
2017-02-18T04:04:28.868Z,0
2017-02-18T04:05:28.864Z,0
2017-02-18T04:06:28.951Z,0
2017-02-18T04:07:29.298Z,0
2017-02-18T04:08:28.794Z,0
2017-02-18T04:09:28.782Z,0
2017-02-18T04:10:28.761Z,0
2017-02-18T04:11:28.355Z,0
2017-02-18T04:12:28.775Z,0
2017-02-18T04:13:28.733Z,0
2017-02-18T04:14:28.299Z,0
2017-02-18T04:15:28.274Z,0
2017-02-18T04:16:28.279Z,0
2017-02-18T04:17:28.271Z,0
2017-02-18T04:18:28.639Z,0
2017-02-18T04:19:28.631Z,0
2017-02-18T04:20:28.695Z,0
2017-02-18T04:21:28.679Z,0
2017-02-18T04:22:28.424Z,0
2017-02-18T04:23:29.516Z,0
2017-02-18T04:24:29.257Z,0
2017-02-18T04:25:29.595Z,0
2017-02-18T04:26:29.338Z,0
2017-02-18T04:27:29.388Z,0
2017-02-18T04:28:28.985Z,0
2017-02-18T04:29:28.745Z,0
2017-02-18T04:30:28.074Z,0
2017-02-18T04:31:28.449Z,0
2017-02-18T04:32:28.437Z,0
2017-02-18T04:33:28.485Z,0
2017-02-18T04:34:29.058Z,0
2017-02-18T04:35:29.361Z,0
2017-02-18T04:36:29.300Z,0
2017-02-18T04:37:29.494Z,0
2017-02-18T04:38:29.169Z,0
2017-02-18T04:39:28.763Z,0
2017-02-18T04:40:28.870Z,0
2017-02-18T04:41:29.049Z,0
2017-02-18T04:42:28.221Z,0
2017-02-18T04:43:28.530Z,0
2017-02-18T04:44:28.808Z,0
2017-02-18T04:45:29.188Z,0
2017-02-18T04:46:29.216Z,0
2017-02-18T04:47:28.694Z,0
2017-02-18T04:48:29.226Z,0
2017-02-18T04:49:28.838Z,0
2017-02-18T04:50:28.308Z,0
2017-02-18T04:51:28.561Z,0
2017-02-18T04:52:28.395Z,0
2017-02-18T04:53:28.371Z,0
2017-02-18T04:54:28.095Z,0
2017-02-18T04:55:28.102Z,0
2017-02-18T04:56:28.076Z,0
2017-02-18T04:57:28.072Z,0
2017-02-18T04:58:28.098Z,0
2017-02-18T04:59:28.007Z,0
2017-02-18T05:00:28.026Z,0
2017-02-18T05:01:27.999Z,0
2017-02-18T05:02:28.017Z,0
2017-02-18T05:03:28.712Z,0
2017-02-18T05:04:28.963Z,0
2017-02-18T05:05:28.080Z,0
2017-02-18T05:06:28.758Z,0
2017-02-18T05:07:28.628Z,0
2017-02-18T05:08:28.318Z,0
2017-02-18T05:09:28.549Z,0
2017-02-18T05:10:28.294Z,0
2017-02-18T05:11:28.307Z,0
2017-02-18T05:12:27.484Z,0
2017-02-18T05:13:27.806Z,0
2017-02-18T05:14:27.795Z,0
2017-02-18T05:15:27.789Z,0
2017-02-18T05:16:28.645Z,0
2017-02-18T05:17:28.495Z,0
2017-02-18T05:18:27.584Z,0
2017-02-18T05:19:28.137Z,0
2017-02-18T05:20:27.710Z,0
2017-02-18T05:21:27.689Z,0
2017-02-18T05:22:27.750Z,0
2017-02-18T05:23:27.670Z,0
2017-02-18T05:24:27.651Z,0
2017-02-18T05:25:27.643Z,0
2017-02-18T05:26:28.081Z,0
2017-02-18T05:27:27.826Z,0
2017-02-18T05:28:28.128Z,0
2017-02-18T05:29:28.206Z,0
2017-02-18T05:30:28.146Z,0
2017-02-18T05:31:28.379Z,0
2017-02-18T05:32:28.888Z,0
2017-02-18T05:33:28.389Z,0
2017-02-18T05:34:28.010Z,0
2017-02-18T05:35:28.158Z,0
2017-02-18T05:36:27.469Z,0
2017-02-18T05:37:27.456Z,0
2017-02-18T05:38:26.628Z,0
2017-02-18T05:39:27.429Z,0
2017-02-18T05:40:27.416Z,0
2017-02-18T05:41:27.841Z,0
2017-02-18T05:42:27.495Z,0
2017-02-18T05:43:28.197Z,0
2017-02-18T05:44:28.418Z,0
2017-02-18T05:45:27.795Z,0
2017-02-18T05:46:28.307Z,0
2017-02-18T05:47:28.054Z,0
2017-02-18T05:48:28.406Z,0
2017-02-18T05:49:27.931Z,0
2017-02-18T05:50:27.187Z,0
2017-02-18T05:51:27.247Z,0
2017-02-18T05:52:27.213Z,0
2017-02-18T05:53:27.205Z,4
2017-02-18T05:54:27.216Z,4
2017-02-18T05:55:27.181Z,0
2017-02-18T05:56:27.288Z,4
2017-02-18T05:57:27.165Z,4
2017-02-18T05:58:27.150Z,4
2017-02-18T05:59:27.294Z,4
2017-02-18T06:00:28.120Z,4
2017-02-18T06:01:28.022Z,8
2017-02-18T06:02:27.655Z,8
2017-02-18T06:03:27.254Z,12
2017-02-18T06:04:28.016Z,12
2017-02-18T06:05:27.352Z,12
2017-02-18T06:06:26.999Z,16
2017-02-18T06:07:26.993Z,16
2017-02-18T06:08:26.994Z,16
2017-02-18T06:09:26.968Z,20
2017-02-18T06:10:26.975Z,24
2017-02-18T06:11:26.950Z,28
2017-02-18T06:12:26.933Z,32
2017-02-18T06:13:26.916Z,32
2017-02-18T06:14:26.891Z,36
2017-02-18T06:15:26.894Z,44
2017-02-18T06:16:26.875Z,44
2017-02-18T06:17:26.466Z,52
2017-02-18T06:18:26.846Z,56
2017-02-18T06:19:26.824Z,60
2017-02-18T06:20:26.795Z,64
2017-02-18T06:21:26.778Z,68
2017-02-18T06:22:26.772Z,72
2017-02-18T06:23:26.755Z,76
2017-02-18T06:24:26.736Z,84
2017-02-18T06:25:26.734Z,88
2017-02-18T06:26:26.724Z,96
2017-02-18T06:27:26.703Z,100
2017-02-18T06:28:26.673Z,108
2017-02-18T06:29:26.667Z,120
2017-02-18T06:30:26.649Z,124
2017-02-18T06:31:26.646Z,132
2017-02-18T06:32:26.629Z,140
2017-02-18T06:33:26.613Z,148
2017-02-18T06:34:26.580Z,160
2017-02-18T06:35:26.627Z,168
2017-02-18T06:36:26.583Z,180
2017-02-18T06:37:26.551Z,192
2017-02-18T06:38:26.554Z,200
2017-02-18T06:39:26.524Z,204
2017-02-18T06:40:26.518Z,208
2017-02-18T06:41:26.496Z,216
2017-02-18T06:42:26.117Z,224
2017-02-18T06:43:26.467Z,236
2017-02-18T06:44:26.449Z,252
2017-02-18T06:45:26.442Z,268
2017-02-18T06:46:26.424Z,276
2017-02-18T06:47:26.419Z,288
2017-02-18T06:48:26.363Z,304
2017-02-18T06:49:25.965Z,316
2017-02-18T06:50:26.366Z,328
2017-02-18T06:51:26.339Z,336
2017-02-18T06:52:26.304Z,352
2017-02-18T06:53:26.317Z,368
2017-02-18T06:54:26.296Z,372
2017-02-18T06:55:26.286Z,368
2017-02-18T06:56:26.267Z,372
2017-02-18T06:57:26.265Z,384
2017-02-18T06:58:26.225Z,400
2017-02-18T06:59:26.236Z,408
2017-02-18T07:00:26.203Z,420
2017-02-18T07:01:26.214Z,432
2017-02-18T07:02:26.180Z,440
2017-02-18T07:03:26.169Z,452
2017-02-18T07:04:26.146Z,468
2017-02-18T07:05:25.748Z,492
2017-02-18T07:06:26.116Z,508
2017-02-18T07:07:26.109Z,536
2017-02-18T07:08:26.094Z,564
2017-02-18T07:09:26.127Z,604
2017-02-18T07:10:26.063Z,644
2017-02-18T07:11:26.046Z,688
2017-02-18T07:12:26.021Z,716
2017-02-18T07:13:26.002Z,728
2017-02-18T07:14:25.985Z,728
2017-02-18T07:15:25.987Z,728
2017-02-18T07:16:25.965Z,736
2017-02-18T07:17:25.949Z,772
2017-02-18T07:18:25.934Z,800
2017-02-18T07:19:25.923Z,776
2017-02-18T07:20:25.521Z,724
2017-02-18T07:21:25.907Z,700
2017-02-18T07:22:25.886Z,716
2017-02-18T07:23:25.939Z,764
2017-02-18T07:24:25.856Z,712
2017-02-18T07:25:25.418Z,672
2017-02-18T07:26:25.413Z,732
2017-02-18T07:27:25.800Z,792
2017-02-18T07:28:25.810Z,908
2017-02-18T07:29:25.793Z,940
2017-02-18T07:30:25.359Z,888
2017-02-18T07:31:25.334Z,812
2017-02-18T07:32:24.939Z,880
2017-02-18T07:33:25.724Z,1020
2017-02-18T07:34:25.700Z,968
2017-02-18T07:35:25.722Z,964
2017-02-18T07:36:25.665Z,1068
2017-02-18T07:37:25.664Z,1044
2017-02-18T07:38:25.644Z,1052
2017-02-18T07:39:25.617Z,1184
2017-02-18T07:40:25.599Z,1248
2017-02-18T07:41:25.592Z,1164
2017-02-18T07:42:25.580Z,1148
2017-02-18T07:43:25.555Z,1160
2017-02-18T07:44:25.587Z,1204
2017-02-18T07:45:25.531Z,1280
2017-02-18T07:46:25.523Z,1436
2017-02-18T07:47:25.510Z,1480
2017-02-18T07:48:25.494Z,1564
2017-02-18T07:49:25.480Z,1624
2017-02-18T07:50:25.450Z,1624
2017-02-18T07:51:25.443Z,1464
2017-02-18T07:52:25.439Z,1588
2017-02-18T07:53:25.411Z,1784
2017-02-18T07:54:25.415Z,2044
2017-02-18T07:55:25.380Z,1992
2017-02-18T07:56:25.370Z,1972
2017-02-18T07:57:25.339Z,1764
2017-02-18T07:58:24.548Z,1652
2017-02-18T07:59:25.325Z,1584
2017-02-18T08:00:25.311Z,1992
2017-02-18T08:01:24.502Z,2128
2017-02-18T08:02:25.297Z,2336
2017-02-18T08:03:25.255Z,2632
2017-02-18T08:04:25.257Z,2612
2017-02-18T08:05:25.237Z,2460
2017-02-18T08:06:25.232Z,2460
2017-02-18T08:07:25.213Z,3100
2017-02-18T08:08:25.192Z,3400
2017-02-18T08:09:25.206Z,3340
2017-02-18T08:10:24.801Z,3148
2017-02-18T08:11:25.141Z,3008
2017-02-18T08:12:25.134Z,2864
2017-02-18T08:13:25.126Z,2756
2017-02-18T08:14:25.110Z,2764
2017-02-18T08:15:25.088Z,2920
2017-02-18T08:16:25.080Z,3120
2017-02-18T08:17:25.054Z,3468
2017-02-18T08:18:25.052Z,3888
2017-02-18T08:19:25.022Z,4236
2017-02-18T08:20:25.012Z,4476
2017-02-18T08:21:25.710Z,4708
2017-02-18T08:22:25.628Z,4948
2017-02-18T08:23:25.591Z,5224
2017-02-18T08:24:25.633Z,5396
2017-02-18T08:25:25.338Z,5576
2017-02-18T08:26:25.374Z,5768
2017-02-18T08:27:25.513Z,5884
2017-02-18T08:28:25.326Z,5940
2017-02-18T08:29:25.471Z,5980
2017-02-18T08:30:25.077Z,5948
2017-02-18T08:31:25.464Z,5848
2017-02-18T08:32:25.459Z,5744
2017-02-18T08:33:25.446Z,5752
2017-02-18T08:34:25.478Z,5796
2017-02-18T08:35:25.361Z,5772
2017-02-18T08:36:24.926Z,5696
2017-02-18T08:37:25.254Z,5564
2017-02-18T08:38:24.271Z,5340
2017-02-18T08:39:25.224Z,4860
2017-02-18T08:40:24.729Z,4508
2017-02-18T08:41:24.302Z,4232
2017-02-18T08:42:24.779Z,4184
2017-02-18T08:43:24.674Z,4184
2017-02-18T08:44:24.660Z,4272
2017-02-18T08:45:24.656Z,4036
2017-02-18T08:46:24.634Z,3468
2017-02-18T08:47:24.241Z,3240
2017-02-18T08:48:24.608Z,3120
2017-02-18T08:49:24.615Z,3068
2017-02-18T08:50:24.586Z,2980
2017-02-18T08:51:24.575Z,3004
2017-02-18T08:52:24.548Z,2760
2017-02-18T08:53:24.543Z,2808
2017-02-18T08:54:24.111Z,3056
2017-02-18T08:55:24.498Z,3384
2017-02-18T08:56:24.505Z,3668
2017-02-18T08:57:24.467Z,4064
2017-02-18T08:58:24.472Z,4024
2017-02-18T08:59:24.473Z,3744
2017-02-18T09:00:24.483Z,3476
2017-02-18T09:01:24.412Z,3244
2017-02-18T09:02:24.414Z,3360
2017-02-18T09:03:24.401Z,3444
2017-02-18T09:04:24.370Z,3248
2017-02-18T09:05:23.975Z,3252
2017-02-18T09:06:24.350Z,3832
2017-02-18T09:07:23.948Z,4336
2017-02-18T09:08:23.943Z,5004
2017-02-18T09:09:24.324Z,5196
2017-02-18T09:10:24.298Z,4368
2017-02-18T09:11:24.289Z,4008
2017-02-18T09:12:24.288Z,4324
2017-02-18T09:13:24.252Z,4628
2017-02-18T09:14:24.256Z,4768
2017-02-18T09:15:24.246Z,4736
2017-02-18T09:16:24.221Z,4784
2017-02-18T09:17:23.803Z,4668
2017-02-18T09:18:24.213Z,4536
2017-02-18T09:19:24.176Z,4656
2017-02-18T09:20:24.175Z,4736
2017-02-18T09:21:23.342Z,4768
2017-02-18T09:22:24.137Z,4688
2017-02-18T09:23:24.108Z,4816
2017-02-18T09:24:24.116Z,4680
2017-02-18T09:25:24.076Z,4588
2017-02-18T09:26:24.087Z,4540
2017-02-18T09:27:24.056Z,4512
2017-02-18T09:28:23.672Z,4796
2017-02-18T09:29:24.037Z,4944
2017-02-18T09:30:24.028Z,5312
2017-02-18T09:31:24.022Z,5540
2017-02-18T09:32:23.993Z,5108
2017-02-18T09:33:23.582Z,4940
2017-02-18T09:34:23.984Z,5248
2017-02-18T09:35:23.569Z,5308
2017-02-18T09:36:23.937Z,5592
2017-02-18T09:37:23.516Z,5620
2017-02-18T09:38:23.913Z,5464
2017-02-18T09:39:23.913Z,5528
2017-02-18T09:40:23.872Z,5796
2017-02-18T09:41:23.890Z,5968
2017-02-18T09:42:23.866Z,5836
2017-02-18T09:43:23.843Z,5612
2017-02-18T09:44:23.852Z,5396
2017-02-18T09:45:23.804Z,5548
2017-02-18T09:46:23.806Z,5432
2017-02-18T09:47:23.798Z,5028
2017-02-18T09:48:23.762Z,5296
2017-02-18T09:49:23.815Z,5384
2017-02-18T09:50:23.742Z,4960
2017-02-18T09:51:23.750Z,4876
2017-02-18T09:52:23.310Z,5524
2017-02-18T09:53:23.732Z,6500
2017-02-18T09:54:23.703Z,6968
2017-02-18T09:55:23.722Z,7204
2017-02-18T09:56:23.264Z,7972
2017-02-18T09:57:23.655Z,7908
2017-02-18T09:58:23.643Z,7060
2017-02-18T09:59:23.610Z,6304
2017-02-18T10:00:23.667Z,6388
2017-02-18T10:01:23.580Z,6312
2017-02-18T10:02:23.585Z,6316
2017-02-18T10:03:23.595Z,7008
2017-02-18T10:04:23.560Z,6904
2017-02-18T10:05:23.550Z,7596
2017-02-18T10:06:23.529Z,7688
2017-02-18T10:07:23.527Z,7648
2017-02-18T10:08:23.101Z,6652
2017-02-18T10:09:23.506Z,5744
2017-02-18T10:10:23.074Z,6504
2017-02-18T10:11:23.457Z,7364
2017-02-18T10:12:23.042Z,6764
2017-02-18T10:13:23.032Z,6240
2017-02-18T10:14:23.432Z,6240
2017-02-18T10:15:23.409Z,5576
2017-02-18T10:16:22.981Z,5428
2017-02-18T10:17:23.448Z,6476
2017-02-18T10:18:23.007Z,8136
2017-02-18T10:19:23.359Z,9732
2017-02-18T10:20:22.945Z,10244
2017-02-18T10:21:23.350Z,10336
2017-02-18T10:22:23.310Z,10312
2017-02-18T10:23:23.295Z,9728
2017-02-18T10:24:23.297Z,8804
2017-02-18T10:25:23.283Z,8312
2017-02-18T10:26:22.859Z,8108
2017-02-18T10:27:23.230Z,7524
2017-02-18T10:28:23.244Z,6404
2017-02-18T10:29:23.235Z,5912
2017-02-18T10:30:23.212Z,6068
2017-02-18T10:31:23.246Z,6452
2017-02-18T10:32:23.197Z,6600
2017-02-18T10:33:23.170Z,6980
2017-02-18T10:34:23.162Z,7280
2017-02-18T10:35:23.145Z,7756
2017-02-18T10:36:23.148Z,8240
2017-02-18T10:37:23.117Z,8400
2017-02-18T10:38:23.093Z,8304
2017-02-18T10:39:23.097Z,8196
2017-02-18T10:40:23.070Z,8280
2017-02-18T10:41:23.061Z,8684
2017-02-18T10:42:23.053Z,8460
2017-02-18T10:43:22.648Z,9080
2017-02-18T10:44:23.032Z,9308
2017-02-18T10:45:23.001Z,9076
2017-02-18T10:46:23.007Z,9008
2017-02-18T10:47:22.997Z,9360
2017-02-18T10:48:22.991Z,9452
2017-02-18T10:49:22.959Z,9656
2017-02-18T10:50:22.945Z,9812
2017-02-18T10:51:22.944Z,9904
2017-02-18T10:52:22.515Z,9780
2017-02-18T10:53:22.911Z,9748
2017-02-18T10:54:22.910Z,9684
2017-02-18T10:55:22.896Z,9640
2017-02-18T10:56:22.882Z,9620
2017-02-18T10:57:22.845Z,9608
2017-02-18T10:58:22.832Z,9760
2017-02-18T10:59:22.824Z,9728
2017-02-18T11:00:22.821Z,9340
2017-02-18T11:01:22.792Z,9100
2017-02-18T11:02:22.805Z,9412
2017-02-18T11:03:22.774Z,9608
2017-02-18T11:04:22.769Z,9560
2017-02-18T11:05:22.767Z,9400
2017-02-18T11:06:22.752Z,9400
2017-02-18T11:07:22.758Z,9596
2017-02-18T11:08:22.713Z,9592
2017-02-18T11:09:22.713Z,9496
2017-02-18T11:10:22.694Z,9196
2017-02-18T11:11:22.707Z,8964
2017-02-18T11:12:22.666Z,9048
2017-02-18T11:13:22.663Z,8772
2017-02-18T11:14:22.648Z,8184
2017-02-18T11:15:22.630Z,7984
2017-02-18T11:16:22.628Z,8500
2017-02-18T11:17:22.589Z,9336
2017-02-18T11:18:22.602Z,9952
2017-02-18T11:19:22.616Z,10348
2017-02-18T11:20:22.587Z,10520
2017-02-18T11:21:22.542Z,10436
2017-02-18T11:22:22.554Z,10316
2017-02-18T11:23:22.135Z,10104
2017-02-18T11:24:22.530Z,9788
2017-02-18T11:25:22.521Z,9496
2017-02-18T11:26:22.488Z,9360
2017-02-18T11:27:22.494Z,9440
2017-02-18T11:28:22.461Z,9544
2017-02-18T11:29:22.442Z,9528
2017-02-18T11:30:22.455Z,9600
2017-02-18T11:31:22.430Z,9780
2017-02-18T11:32:22.400Z,10052
2017-02-18T11:33:22.404Z,10244
2017-02-18T11:34:22.389Z,10424
2017-02-18T11:35:22.369Z,10476
2017-02-18T11:36:22.373Z,10428
2017-02-18T11:37:22.369Z,10368
2017-02-18T11:38:22.328Z,10204
2017-02-18T11:39:21.948Z,10020
2017-02-18T11:40:22.330Z,9948
2017-02-18T11:41:22.288Z,9736
2017-02-18T11:42:22.297Z,9260
2017-02-18T11:43:22.280Z,8664
2017-02-18T11:44:22.276Z,8316
2017-02-18T11:45:22.253Z,7752
2017-02-18T11:46:21.872Z,7044
2017-02-18T11:47:22.235Z,7216
2017-02-18T11:48:21.838Z,8036
2017-02-18T11:49:22.215Z,8016
2017-02-18T11:50:22.196Z,7296
2017-02-18T11:51:22.179Z,7004
2017-02-18T11:52:22.235Z,7968
2017-02-18T11:53:22.192Z,9052
2017-02-18T11:54:22.196Z,9212
2017-02-18T11:55:21.760Z,9024
2017-02-18T11:56:22.133Z,9208
2017-02-18T11:57:21.710Z,9704
2017-02-18T11:58:21.699Z,10016
2017-02-18T11:59:22.098Z,9880
2017-02-18T12:00:22.099Z,9412
2017-02-18T12:01:22.056Z,9584
2017-02-18T12:02:22.062Z,9392
2017-02-18T12:03:21.634Z,8736
2017-02-18T12:04:21.640Z,7640
2017-02-18T12:05:22.012Z,6804
2017-02-18T12:06:21.615Z,6640
2017-02-18T12:07:21.973Z,5992
2017-02-18T12:08:21.588Z,4748
2017-02-18T12:09:21.958Z,4012
2017-02-18T12:10:21.955Z,3956
2017-02-18T12:11:21.929Z,3920
2017-02-18T12:12:21.949Z,3888
2017-02-18T12:13:21.918Z,4364
2017-02-18T12:14:21.904Z,5876
2017-02-18T12:15:21.892Z,6732
2017-02-18T12:16:21.875Z,6864
2017-02-18T12:17:21.879Z,7176
2017-02-18T12:18:21.867Z,7104
2017-02-18T12:19:21.856Z,6540
2017-02-18T12:20:21.827Z,6140
2017-02-18T12:21:21.815Z,6208
2017-02-18T12:22:21.401Z,6512
2017-02-18T12:23:21.795Z,6868
2017-02-18T12:24:21.797Z,7324
2017-02-18T12:25:21.775Z,7840
2017-02-18T12:26:21.761Z,8264
2017-02-18T12:27:21.724Z,8752
2017-02-18T12:28:21.742Z,8936
2017-02-18T12:29:21.708Z,9016
2017-02-18T12:30:21.714Z,9068
2017-02-18T12:31:21.697Z,9052
2017-02-18T12:32:21.677Z,8968
2017-02-18T12:33:21.663Z,8800
2017-02-18T12:34:21.264Z,8756
2017-02-18T12:35:21.228Z,8800
2017-02-18T12:36:21.623Z,8868
2017-02-18T12:37:21.587Z,8912
2017-02-18T12:38:21.580Z,8944
2017-02-18T12:39:21.182Z,9052
2017-02-18T12:40:21.579Z,9116
2017-02-18T12:41:21.566Z,9192
2017-02-18T12:42:21.556Z,9276
2017-02-18T12:43:21.537Z,9288
2017-02-18T12:44:21.512Z,9160
2017-02-18T12:45:21.508Z,8964
2017-02-18T12:46:21.510Z,8828
2017-02-18T12:47:21.075Z,8776
2017-02-18T12:48:20.670Z,8744
2017-02-18T12:49:21.046Z,8616
2017-02-18T12:50:21.449Z,8528
2017-02-18T12:51:21.437Z,8368
2017-02-18T12:52:21.411Z,8588
2017-02-18T12:53:21.428Z,8752
2017-02-18T12:54:21.393Z,8776
2017-02-18T12:55:20.983Z,8808
2017-02-18T12:56:21.371Z,8732
2017-02-18T12:57:21.357Z,8580
2017-02-18T12:58:20.960Z,8260
2017-02-18T12:59:21.337Z,7676
2017-02-18T13:00:21.321Z,7644
2017-02-18T13:01:21.299Z,8016
2017-02-18T13:02:20.883Z,8108
2017-02-18T13:03:21.280Z,7964
2017-02-18T13:04:21.256Z,8136
2017-02-18T13:05:20.853Z,8348
2017-02-18T13:06:20.848Z,8232
2017-02-18T13:07:21.228Z,7724
2017-02-18T13:08:21.226Z,7592
2017-02-18T13:09:21.211Z,7784
2017-02-18T13:10:20.798Z,7512
2017-02-18T13:11:20.766Z,7156
2017-02-18T13:12:21.174Z,6600
2017-02-18T13:13:21.145Z,6256
2017-02-18T13:14:20.723Z,6428
2017-02-18T13:15:21.129Z,6644
2017-02-18T13:16:21.112Z,6256
2017-02-18T13:17:21.091Z,5556
2017-02-18T13:18:21.107Z,4756
2017-02-18T13:19:21.075Z,4048
2017-02-18T13:20:21.068Z,3456
2017-02-18T13:21:21.056Z,3080
2017-02-18T13:22:20.640Z,2880
2017-02-18T13:23:21.032Z,2516
2017-02-18T13:24:21.009Z,2104
2017-02-18T13:25:21.006Z,2200
2017-02-18T13:26:21.016Z,3192
2017-02-18T13:27:20.969Z,3488
2017-02-18T13:28:20.539Z,3752
2017-02-18T13:29:20.567Z,4244
2017-02-18T13:30:20.528Z,4540
2017-02-18T13:31:20.540Z,4968
2017-02-18T13:32:20.934Z,5504
2017-02-18T13:33:21.515Z,5784
2017-02-18T13:34:20.372Z,5828
2017-02-18T13:35:20.869Z,5736
2017-02-18T13:36:20.445Z,5720
2017-02-18T13:37:20.843Z,5880
2017-02-18T13:38:20.425Z,6088
2017-02-18T13:39:20.435Z,6240
2017-02-18T13:40:20.804Z,6404
2017-02-18T13:41:20.791Z,6620
2017-02-18T13:42:20.786Z,6808
2017-02-18T13:43:20.783Z,6956
2017-02-18T13:44:20.742Z,7028
2017-02-18T13:45:20.363Z,6952
2017-02-18T13:46:20.724Z,6824
2017-02-18T13:47:20.715Z,6740
2017-02-18T13:48:20.334Z,6800
2017-02-18T13:49:20.697Z,6772
2017-02-18T13:50:20.269Z,6712
2017-02-18T13:51:20.649Z,6544
2017-02-18T13:52:20.272Z,6312
2017-02-18T13:53:20.638Z,6120
2017-02-18T13:54:20.232Z,6096
2017-02-18T13:55:20.197Z,6144
2017-02-18T13:56:20.596Z,6152
2017-02-18T13:57:20.599Z,6108
2017-02-18T13:58:20.188Z,6116